sensor_id;sensor_type;location;lat;lon;timestamp;P1;durP1;ratioP1;P2;durP2;ratioP2
15102;SDS011;7652;53.584;9.998;2023-08-01T00:00:02;4.03;;;3.17;;
15102;SDS011;7652;53.584;9.998;2023-08-01T00:03:25;3.90;;;3.57;;
15102;SDS011;7652;53.584;9.998;2023-08-01T00:06:47;4.23;;;3.83;;
15102;SDS011;7652;53.584;9.998;2023-08-01T00:10:09;3.73;;;3.30;;
15102;SDS011;7652;53.584;9.998;2023-08-01T00:13:32;2.80;;;2.60;;
15102;SDS011;7652;53.584;9.998;2023-08-01T00:16:54;2.50;;;2.40;;
15102;SDS011;7652;53.584;9.998;2023-08-01T00:20:15;2.20;;;2.00;;
15102;SDS011;7652;53.584;9.998;2023-08-01T00:23:37;2.00;;;1.90;;
15102;SDS011;7652;53.584;9.998;2023-08-01T00:26:58;2.20;;;2.00;;
15102;SDS011;7652;53.584;9.998;2023-08-01T00:30:21;2.97;;;2.30;;
15102;SDS011;7652;53.584;9.998;2023-08-01T00:33:43;2.37;;;2.00;;
15102;SDS011;7652;53.584;9.998;2023-08-01T00:37:04;2.63;;;1.90;;
15102;SDS011;7652;53.584;9.998;2023-08-01T00:40:29;2.30;;;2.20;;
15102;SDS011;7652;53.584;9.998;2023-08-01T00:43:51;2.40;;;2.20;;
15102;SDS011;7652;53.584;9.998;2023-08-01T00:47:13;2.00;;;1.90;;
15102;SDS011;7652;53.584;9.998;2023-08-01T00:50:35;2.37;;;2.17;;
15102;SDS011;7652;53.584;9.998;2023-08-01T00:53:57;2.33;;;2.13;;
15102;SDS011;7652;53.584;9.998;2023-08-01T00:57:18;2.70;;;2.50;;
15102;SDS011;7652;53.584;9.998;2023-08-01T01:00:40;2.50;;;2.30;;
15102;SDS011;7652;53.584;9.998;2023-08-01T01:04:03;2.63;;;2.43;;
15102;SDS011;7652;53.584;9.998;2023-08-01T01:07:25;2.77;;;2.57;;
15102;SDS011;7652;53.584;9.998;2023-08-01T01:10:46;2.30;;;2.10;;
15102;SDS011;7652;53.584;9.998;2023-08-01T01:14:08;2.30;;;2.10;;
15102;SDS011;7652;53.584;9.998;2023-08-01T01:17:30;3.70;;;3.40;;
15102;SDS011;7652;53.584;9.998;2023-08-01T01:20:52;3.20;;;2.90;;
15102;SDS011;7652;53.584;9.998;2023-08-01T01:24:14;3.60;;;3.30;;
15102;SDS011;7652;53.584;9.998;2023-08-01T01:27:36;4.90;;;3.93;;
15102;SDS011;7652;53.584;9.998;2023-08-01T01:30:58;4.30;;;3.87;;
15102;SDS011;7652;53.584;9.998;2023-08-01T01:34:21;4.60;;;4.20;;
15102;SDS011;7652;53.584;9.998;2023-08-01T01:37:44;4.27;;;3.87;;
15102;SDS011;7652;53.584;9.998;2023-08-01T01:41:05;4.57;;;4.17;;
15102;SDS011;7652;53.584;9.998;2023-08-01T01:44:27;4.30;;;4.00;;
15102;SDS011;7652;53.584;9.998;2023-08-01T01:47:48;4.70;;;4.30;;
15102;SDS011;7652;53.584;9.998;2023-08-01T01:51:10;5.03;;;4.63;;
15102;SDS011;7652;53.584;9.998;2023-08-01T01:54:32;5.63;;;4.97;;
15102;SDS011;7652;53.584;9.998;2023-08-01T01:57:54;4.90;;;4.50;;
15102;SDS011;7652;53.584;9.998;2023-08-01T02:01:15;5.30;;;4.80;;
15102;SDS011;7652;53.584;9.998;2023-08-01T02:04:37;5.90;;;5.30;;
15102;SDS011;7652;53.584;9.998;2023-08-01T02:07:59;6.40;;;5.83;;
15102;SDS011;7652;53.584;9.998;2023-08-01T02:11:21;5.73;;;5.27;;
15102;SDS011;7652;53.584;9.998;2023-08-01T02:14:43;6.50;;;5.90;;
15102;SDS011;7652;53.584;9.998;2023-08-01T02:18:04;6.83;;;5.87;;
15102;SDS011;7652;53.584;9.998;2023-08-01T02:21:26;7.87;;;7.17;;
15102;SDS011;7652;53.584;9.998;2023-08-01T02:24:47;7.70;;;7.00;;
15102;SDS011;7652;53.584;9.998;2023-08-01T02:28:10;9.63;;;7.90;;
15102;SDS011;7652;53.584;9.998;2023-08-01T02:31:33;7.97;;;7.23;;
15102;SDS011;7652;53.584;9.998;2023-08-01T02:34:55;8.67;;;7.53;;
15102;SDS011;7652;53.584;9.998;2023-08-01T02:38:16;10.57;;;7.50;;
15102;SDS011;7652;53.584;9.998;2023-08-01T02:41:38;9.00;;;7.17;;
15102;SDS011;7652;53.584;9.998;2023-08-01T02:45:00;7.87;;;7.07;;
15102;SDS011;7652;53.584;9.998;2023-08-01T02:48:22;8.43;;;7.63;;
15102;SDS011;7652;53.584;9.998;2023-08-01T02:51:43;8.80;;;7.90;;
15102;SDS011;7652;53.584;9.998;2023-08-01T02:55:05;8.70;;;7.90;;
15102;SDS011;7652;53.584;9.998;2023-08-01T02:58:27;9.57;;;8.30;;
15102;SDS011;7652;53.584;9.998;2023-08-01T03:01:50;9.43;;;7.43;;
15102;SDS011;7652;53.584;9.998;2023-08-01T03:05:11;9.50;;;8.60;;
15102;SDS011;7652;53.584;9.998;2023-08-01T03:08:33;13.50;;;8.57;;
15102;SDS011;7652;53.584;9.998;2023-08-01T03:11:54;9.10;;;8.30;;
15102;SDS011;7652;53.584;9.998;2023-08-01T03:15:16;9.83;;;8.83;;
15102;SDS011;7652;53.584;9.998;2023-08-01T03:18:39;10.80;;;8.40;;
15102;SDS011;7652;53.584;9.998;2023-08-01T03:22:00;9.40;;;8.37;;
15102;SDS011;7652;53.584;9.998;2023-08-01T03:25:22;10.27;;;9.07;;
15102;SDS011;7652;53.584;9.998;2023-08-01T03:28:43;10.77;;;9.77;;
15102;SDS011;7652;53.584;9.998;2023-08-01T03:32:04;10.30;;;9.30;;
15102;SDS011;7652;53.584;9.998;2023-08-01T03:35:28;11.10;;;8.87;;
15102;SDS011;7652;53.584;9.998;2023-08-01T03:38:49;10.47;;;9.27;;
15102;SDS011;7652;53.584;9.998;2023-08-01T03:42:10;10.90;;;9.60;;
15102;SDS011;7652;53.584;9.998;2023-08-01T03:45:33;10.13;;;8.90;;
15102;SDS011;7652;53.584;9.998;2023-08-01T03:48:55;11.87;;;9.10;;
15102;SDS011;7652;53.584;9.998;2023-08-01T03:52:17;11.77;;;8.37;;
15102;SDS011;7652;53.584;9.998;2023-08-01T03:55:40;10.67;;;8.93;;
15102;SDS011;7652;53.584;9.998;2023-08-01T03:59:02;8.90;;;8.00;;
15102;SDS011;7652;53.584;9.998;2023-08-01T04:02:24;11.70;;;8.87;;
15102;SDS011;7652;53.584;9.998;2023-08-01T04:05:46;10.07;;;9.07;;
15102;SDS011;7652;53.584;9.998;2023-08-01T04:09:09;9.77;;;8.77;;
15102;SDS011;7652;53.584;9.998;2023-08-01T04:12:31;13.03;;;8.93;;
15102;SDS011;7652;53.584;9.998;2023-08-01T04:15:54;11.30;;;8.77;;
15102;SDS011;7652;53.584;9.998;2023-08-01T04:19:15;10.17;;;9.17;;
15102;SDS011;7652;53.584;9.998;2023-08-01T04:22:37;9.43;;;8.40;;
15102;SDS011;7652;53.584;9.998;2023-08-01T04:25:59;9.90;;;7.80;;
15102;SDS011;7652;53.584;9.998;2023-08-01T04:29:21;9.23;;;8.07;;
15102;SDS011;7652;53.584;9.998;2023-08-01T04:32:42;10.27;;;8.33;;
15102;SDS011;7652;53.584;9.998;2023-08-01T04:36:04;10.93;;;8.53;;
15102;SDS011;7652;53.584;9.998;2023-08-01T04:39:25;10.63;;;8.07;;
15102;SDS011;7652;53.584;9.998;2023-08-01T04:42:48;8.90;;;8.00;;
15102;SDS011;7652;53.584;9.998;2023-08-01T04:46:09;10.33;;;8.57;;
15102;SDS011;7652;53.584;9.998;2023-08-01T04:49:34;9.40;;;8.10;;
15102;SDS011;7652;53.584;9.998;2023-08-01T04:52:55;9.70;;;8.80;;
15102;SDS011;7652;53.584;9.998;2023-08-01T04:56:17;8.47;;;7.67;;
15102;SDS011;7652;53.584;9.998;2023-08-01T04:59:40;11.30;;;10.20;;
15102;SDS011;7652;53.584;9.998;2023-08-01T05:03:01;9.53;;;8.57;;
15102;SDS011;7652;53.584;9.998;2023-08-01T05:06:23;10.73;;;9.30;;
15102;SDS011;7652;53.584;9.998;2023-08-01T05:09:44;9.10;;;8.17;;
15102;SDS011;7652;53.584;9.998;2023-08-01T05:13:06;9.73;;;8.73;;
15102;SDS011;7652;53.584;9.998;2023-08-01T05:16:29;9.07;;;8.13;;
15102;SDS011;7652;53.584;9.998;2023-08-01T05:19:50;11.67;;;7.97;;
15102;SDS011;7652;53.584;9.998;2023-08-01T05:23:12;8.73;;;7.83;;
15102;SDS011;7652;53.584;9.998;2023-08-01T05:26:33;9.20;;;7.43;;
15102;SDS011;7652;53.584;9.998;2023-08-01T05:29:55;9.07;;;7.60;;
15102;SDS011;7652;53.584;9.998;2023-08-01T05:33:18;9.87;;;7.90;;
15102;SDS011;7652;53.584;9.998;2023-08-01T05:36:39;10.63;;;7.70;;
15102;SDS011;7652;53.584;9.998;2023-08-01T05:40:02;10.87;;;8.10;;
15102;SDS011;7652;53.584;9.998;2023-08-01T05:43:24;10.20;;;7.30;;
15102;SDS011;7652;53.584;9.998;2023-08-01T05:46:45;9.13;;;6.47;;
15102;SDS011;7652;53.584;9.998;2023-08-01T05:50:09;7.20;;;6.50;;
15102;SDS011;7652;53.584;9.998;2023-08-01T05:53:30;7.87;;;6.40;;
15102;SDS011;7652;53.584;9.998;2023-08-01T05:56:52;6.73;;;5.63;;
15102;SDS011;7652;53.584;9.998;2023-08-01T06:00:14;7.63;;;6.47;;
15102;SDS011;7652;53.584;9.998;2023-08-01T06:03:36;6.27;;;5.67;;
15102;SDS011;7652;53.584;9.998;2023-08-01T06:06:59;7.13;;;5.60;;
15102;SDS011;7652;53.584;9.998;2023-08-01T06:10:21;8.23;;;5.83;;
15102;SDS011;7652;53.584;9.998;2023-08-01T06:13:43;7.70;;;5.10;;
15102;SDS011;7652;53.584;9.998;2023-08-01T06:17:05;7.87;;;4.83;;
15102;SDS011;7652;53.584;9.998;2023-08-01T06:20:26;7.17;;;5.13;;
15102;SDS011;7652;53.584;9.998;2023-08-01T06:23:49;5.80;;;4.70;;
15102;SDS011;7652;53.584;9.998;2023-08-01T06:27:11;5.57;;;4.90;;
15102;SDS011;7652;53.584;9.998;2023-08-01T06:30:33;6.63;;;4.90;;
15102;SDS011;7652;53.584;9.998;2023-08-01T06:33:55;5.43;;;4.93;;
15102;SDS011;7652;53.584;9.998;2023-08-01T06:37:16;6.27;;;4.80;;
15102;SDS011;7652;53.584;9.998;2023-08-01T06:40:39;5.47;;;4.97;;
15102;SDS011;7652;53.584;9.998;2023-08-01T06:44:01;8.53;;;5.10;;
15102;SDS011;7652;53.584;9.998;2023-08-01T06:47:22;5.07;;;4.57;;
15102;SDS011;7652;53.584;9.998;2023-08-01T06:50:44;6.77;;;3.70;;
15102;SDS011;7652;53.584;9.998;2023-08-01T06:54:06;3.77;;;3.03;;
15102;SDS011;7652;53.584;9.998;2023-08-01T06:57:29;5.20;;;3.50;;
15102;SDS011;7652;53.584;9.998;2023-08-01T07:00:51;4.10;;;3.80;;
15102;SDS011;7652;53.584;9.998;2023-08-01T07:04:13;6.17;;;3.70;;
15102;SDS011;7652;53.584;9.998;2023-08-01T07:07:35;4.27;;;3.57;;
15102;SDS011;7652;53.584;9.998;2023-08-01T07:10:56;6.73;;;3.37;;
15102;SDS011;7652;53.584;9.998;2023-08-01T07:14:19;6.83;;;3.43;;
15102;SDS011;7652;53.584;9.998;2023-08-01T07:17:41;4.57;;;2.90;;
15102;SDS011;7652;53.584;9.998;2023-08-01T07:21:02;3.60;;;2.63;;
15102;SDS011;7652;53.584;9.998;2023-08-01T07:24:25;4.97;;;2.77;;
15102;SDS011;7652;53.584;9.998;2023-08-01T07:27:49;8.00;;;2.93;;
15102;SDS011;7652;53.584;9.998;2023-08-01T07:31:12;3.83;;;2.70;;
15102;SDS011;7652;53.584;9.998;2023-08-01T07:34:34;5.83;;;2.73;;
15102;SDS011;7652;53.584;9.998;2023-08-01T07:37:55;5.60;;;2.50;;
15102;SDS011;7652;53.584;9.998;2023-08-01T07:41:16;4.83;;;2.53;;
15102;SDS011;7652;53.584;9.998;2023-08-01T07:44:38;5.20;;;2.63;;
15102;SDS011;7652;53.584;9.998;2023-08-01T07:48:00;4.73;;;2.47;;
15102;SDS011;7652;53.584;9.998;2023-08-01T07:51:22;7.47;;;3.03;;
15102;SDS011;7652;53.584;9.998;2023-08-01T07:54:43;3.80;;;2.23;;
15102;SDS011;7652;53.584;9.998;2023-08-01T07:58:05;5.20;;;2.43;;
15102;SDS011;7652;53.584;9.998;2023-08-01T08:01:26;5.67;;;2.43;;
15102;SDS011;7652;53.584;9.998;2023-08-01T08:04:49;4.33;;;2.90;;
15102;SDS011;7652;53.584;9.998;2023-08-01T08:08:10;6.40;;;3.50;;
15102;SDS011;7652;53.584;9.998;2023-08-01T08:11:32;4.00;;;2.63;;
15102;SDS011;7652;53.584;9.998;2023-08-01T08:14:54;4.47;;;2.60;;
15102;SDS011;7652;53.584;9.998;2023-08-01T08:18:15;5.93;;;3.20;;
15102;SDS011;7652;53.584;9.998;2023-08-01T08:21:40;3.20;;;2.90;;
15102;SDS011;7652;53.584;9.998;2023-08-01T08:25:02;3.23;;;2.73;;
15102;SDS011;7652;53.584;9.998;2023-08-01T08:28:27;3.77;;;2.90;;
15102;SDS011;7652;53.584;9.998;2023-08-01T08:31:51;8.07;;;3.33;;
15102;SDS011;7652;53.584;9.998;2023-08-01T08:35:12;5.30;;;2.87;;
15102;SDS011;7652;53.584;9.998;2023-08-01T08:38:35;6.50;;;3.10;;
15102;SDS011;7652;53.584;9.998;2023-08-01T08:41:57;4.47;;;3.00;;
15102;SDS011;7652;53.584;9.998;2023-08-01T08:45:20;8.03;;;3.20;;
15102;SDS011;7652;53.584;9.998;2023-08-01T08:48:43;3.50;;;3.03;;
15102;SDS011;7652;53.584;9.998;2023-08-01T08:52:07;4.10;;;2.93;;
15102;SDS011;7652;53.584;9.998;2023-08-01T08:55:30;4.70;;;3.27;;
15102;SDS011;7652;53.584;9.998;2023-08-01T08:58:53;3.50;;;2.73;;
15102;SDS011;7652;53.584;9.998;2023-08-01T09:02:15;4.43;;;3.17;;
15102;SDS011;7652;53.584;9.998;2023-08-01T09:05:38;4.53;;;3.30;;
15102;SDS011;7652;53.584;9.998;2023-08-01T09:09:09;8.77;;;6.53;;
15102;SDS011;7652;53.584;9.998;2023-08-01T09:12:34;6.30;;;3.67;;
15102;SDS011;7652;53.584;9.998;2023-08-01T09:15:56;5.37;;;3.77;;
15102;SDS011;7652;53.584;9.998;2023-08-01T09:19:18;2.93;;;2.63;;
15102;SDS011;7652;53.584;9.998;2023-08-01T09:22:43;5.27;;;2.90;;
15102;SDS011;7652;53.584;9.998;2023-08-01T09:26:11;4.23;;;3.03;;
15102;SDS011;7652;53.584;9.998;2023-08-01T09:29:34;2.67;;;2.47;;
15102;SDS011;7652;53.584;9.998;2023-08-01T09:32:56;3.67;;;2.50;;
15102;SDS011;7652;53.584;9.998;2023-08-01T09:36:20;4.97;;;2.57;;
15102;SDS011;7652;53.584;9.998;2023-08-01T09:39:42;3.03;;;2.33;;
15102;SDS011;7652;53.584;9.998;2023-08-01T09:43:06;4.33;;;2.47;;
15102;SDS011;7652;53.584;9.998;2023-08-01T09:46:29;2.97;;;2.60;;
15102;SDS011;7652;53.584;9.998;2023-08-01T09:49:51;4.30;;;2.50;;
15102;SDS011;7652;53.584;9.998;2023-08-01T09:53:13;2.43;;;1.93;;
15102;SDS011;7652;53.584;9.998;2023-08-01T09:56:35;2.57;;;2.00;;
15102;SDS011;7652;53.584;9.998;2023-08-01T09:59:57;2.27;;;1.80;;
15102;SDS011;7652;53.584;9.998;2023-08-01T10:03:20;2.63;;;1.80;;
15102;SDS011;7652;53.584;9.998;2023-08-01T10:06:43;2.20;;;1.80;;
15102;SDS011;7652;53.584;9.998;2023-08-01T10:10:09;4.00;;;2.30;;
15102;SDS011;7652;53.584;9.998;2023-08-01T10:13:32;3.47;;;2.03;;
15102;SDS011;7652;53.584;9.998;2023-08-01T10:16:54;3.23;;;2.10;;
15102;SDS011;7652;53.584;9.998;2023-08-01T10:20:18;3.87;;;2.13;;
15102;SDS011;7652;53.584;9.998;2023-08-01T10:23:42;3.47;;;1.70;;
15102;SDS011;7652;53.584;9.998;2023-08-01T10:27:10;2.80;;;1.80;;
15102;SDS011;7652;53.584;9.998;2023-08-01T10:30:33;3.97;;;1.77;;
15102;SDS011;7652;53.584;9.998;2023-08-01T10:34:03;3.30;;;1.83;;
15102;SDS011;7652;53.584;9.998;2023-08-01T10:37:27;1.87;;;1.50;;
15102;SDS011;7652;53.584;9.998;2023-08-01T10:41:01;2.83;;;1.70;;
15102;SDS011;7652;53.584;9.998;2023-08-01T10:44:22;2.23;;;1.60;;
15102;SDS011;7652;53.584;9.998;2023-08-01T10:47:44;2.33;;;1.40;;
15102;SDS011;7652;53.584;9.998;2023-08-01T10:51:05;5.47;;;1.53;;
15102;SDS011;7652;53.584;9.998;2023-08-01T10:54:28;1.40;;;1.30;;
15102;SDS011;7652;53.584;9.998;2023-08-01T10:57:51;2.30;;;1.40;;
15102;SDS011;7652;53.584;9.998;2023-08-01T11:01:13;1.90;;;1.20;;
15102;SDS011;7652;53.584;9.998;2023-08-01T11:04:35;2.00;;;1.43;;
15102;SDS011;7652;53.584;9.998;2023-08-01T11:07:58;5.23;;;3.63;;
15102;SDS011;7652;53.584;9.998;2023-08-01T11:11:21;1.30;;;0.80;;
15102;SDS011;7652;53.584;9.998;2023-08-01T11:14:43;6.30;;;3.27;;
15102;SDS011;7652;53.584;9.998;2023-08-01T11:18:04;1.87;;;1.10;;
15102;SDS011;7652;53.584;9.998;2023-08-01T11:21:26;2.20;;;1.50;;
15102;SDS011;7652;53.584;9.998;2023-08-01T11:24:49;1.97;;;1.10;;
15102;SDS011;7652;53.584;9.998;2023-08-01T11:28:13;3.60;;;1.20;;
15102;SDS011;7652;53.584;9.998;2023-08-01T11:31:36;1.60;;;1.20;;
15102;SDS011;7652;53.584;9.998;2023-08-01T11:34:58;2.17;;;1.13;;
15102;SDS011;7652;53.584;9.998;2023-08-01T11:38:19;2.00;;;1.20;;
15102;SDS011;7652;53.584;9.998;2023-08-01T11:41:43;1.30;;;1.03;;
15102;SDS011;7652;53.584;9.998;2023-08-01T11:45:10;2.17;;;1.40;;
15102;SDS011;7652;53.584;9.998;2023-08-01T11:48:32;1.90;;;1.33;;
15102;SDS011;7652;53.584;9.998;2023-08-01T11:51:54;2.00;;;1.20;;
15102;SDS011;7652;53.584;9.998;2023-08-01T11:55:22;1.87;;;1.27;;
15102;SDS011;7652;53.584;9.998;2023-08-01T11:58:44;1.70;;;1.50;;
15102;SDS011;7652;53.584;9.998;2023-08-01T12:02:07;1.73;;;1.10;;
15102;SDS011;7652;53.584;9.998;2023-08-01T12:05:29;1.77;;;1.40;;
15102;SDS011;7652;53.584;9.998;2023-08-01T12:08:51;2.03;;;1.03;;
15102;SDS011;7652;53.584;9.998;2023-08-01T12:12:14;1.20;;;1.07;;
15102;SDS011;7652;53.584;9.998;2023-08-01T12:15:36;0.97;;;0.90;;
15102;SDS011;7652;53.584;9.998;2023-08-01T12:19:04;1.67;;;0.80;;
15102;SDS011;7652;53.584;9.998;2023-08-01T12:22:26;1.10;;;0.80;;
15102;SDS011;7652;53.584;9.998;2023-08-01T12:25:47;0.70;;;0.70;;
15102;SDS011;7652;53.584;9.998;2023-08-01T12:29:09;1.40;;;1.10;;
15102;SDS011;7652;53.584;9.998;2023-08-01T12:32:31;1.00;;;0.63;;
15102;SDS011;7652;53.584;9.998;2023-08-01T12:35:56;1.37;;;1.20;;
15102;SDS011;7652;53.584;9.998;2023-08-01T12:39:18;1.90;;;1.00;;
15102;SDS011;7652;53.584;9.998;2023-08-01T12:42:39;1.07;;;0.80;;
15102;SDS011;7652;53.584;9.998;2023-08-01T12:46:00;2.40;;;0.90;;
15102;SDS011;7652;53.584;9.998;2023-08-01T12:49:22;1.27;;;1.00;;
15102;SDS011;7652;53.584;9.998;2023-08-01T12:52:45;1.30;;;0.90;;
15102;SDS011;7652;53.584;9.998;2023-08-01T12:56:06;1.93;;;1.00;;
15102;SDS011;7652;53.584;9.998;2023-08-01T12:59:28;1.27;;;1.00;;
15102;SDS011;7652;53.584;9.998;2023-08-01T13:02:50;0.67;;;0.50;;
15102;SDS011;7652;53.584;9.998;2023-08-01T13:06:11;2.17;;;0.90;;
15102;SDS011;7652;53.584;9.998;2023-08-01T13:09:34;1.00;;;0.60;;
15102;SDS011;7652;53.584;9.998;2023-08-01T13:12:56;0.77;;;0.70;;
15102;SDS011;7652;53.584;9.998;2023-08-01T13:16:17;2.13;;;0.90;;
15102;SDS011;7652;53.584;9.998;2023-08-01T13:19:39;2.40;;;1.00;;
15102;SDS011;7652;53.584;9.998;2023-08-01T13:23:01;2.00;;;1.00;;
15102;SDS011;7652;53.584;9.998;2023-08-01T13:26:25;0.70;;;0.70;;
15102;SDS011;7652;53.584;9.998;2023-08-01T13:29:48;2.70;;;1.40;;
15102;SDS011;7652;53.584;9.998;2023-08-01T13:33:11;1.90;;;0.80;;
15102;SDS011;7652;53.584;9.998;2023-08-01T13:36:33;1.77;;;1.20;;
15102;SDS011;7652;53.584;9.998;2023-08-01T13:39:54;3.23;;;1.20;;
15102;SDS011;7652;53.584;9.998;2023-08-01T13:43:19;1.90;;;1.00;;
15102;SDS011;7652;53.584;9.998;2023-08-01T13:46:41;1.10;;;1.00;;
15102;SDS011;7652;53.584;9.998;2023-08-01T13:50:03;1.60;;;1.10;;
15102;SDS011;7652;53.584;9.998;2023-08-01T13:53:26;1.63;;;1.20;;
15102;SDS011;7652;53.584;9.998;2023-08-01T13:56:47;1.57;;;1.30;;
15102;SDS011;7652;53.584;9.998;2023-08-01T14:00:11;2.10;;;1.37;;
15102;SDS011;7652;53.584;9.998;2023-08-01T14:03:33;1.30;;;1.10;;
15102;SDS011;7652;53.584;9.998;2023-08-01T14:06:55;1.60;;;0.90;;
15102;SDS011;7652;53.584;9.998;2023-08-01T14:10:16;2.63;;;1.23;;
15102;SDS011;7652;53.584;9.998;2023-08-01T14:13:38;1.30;;;0.70;;
15102;SDS011;7652;53.584;9.998;2023-08-01T14:17:01;2.07;;;0.80;;
15102;SDS011;7652;53.584;9.998;2023-08-01T14:20:22;1.07;;;0.67;;
15102;SDS011;7652;53.584;9.998;2023-08-01T14:23:44;2.37;;;1.30;;
15102;SDS011;7652;53.584;9.998;2023-08-01T14:27:05;0.80;;;0.80;;
15102;SDS011;7652;53.584;9.998;2023-08-01T14:30:27;0.60;;;0.60;;
15102;SDS011;7652;53.584;9.998;2023-08-01T14:33:50;2.40;;;0.80;;
15102;SDS011;7652;53.584;9.998;2023-08-01T14:37:11;0.80;;;0.80;;
15102;SDS011;7652;53.584;9.998;2023-08-01T14:40:33;1.03;;;0.70;;
15102;SDS011;7652;53.584;9.998;2023-08-01T14:43:55;2.13;;;0.77;;
15102;SDS011;7652;53.584;9.998;2023-08-01T14:47:17;2.07;;;0.90;;
15102;SDS011;7652;53.584;9.998;2023-08-01T14:50:39;2.17;;;0.80;;
15102;SDS011;7652;53.584;9.998;2023-08-01T14:54:01;1.23;;;1.10;;
15102;SDS011;7652;53.584;9.998;2023-08-01T14:57:22;1.40;;;1.13;;
15102;SDS011;7652;53.584;9.998;2023-08-01T15:00:43;1.73;;;0.90;;
15102;SDS011;7652;53.584;9.998;2023-08-01T15:04:06;0.97;;;0.90;;
15102;SDS011;7652;53.584;9.998;2023-08-01T15:07:29;1.63;;;0.80;;
15102;SDS011;7652;53.584;9.998;2023-08-01T15:10:50;2.73;;;0.90;;
15102;SDS011;7652;53.584;9.998;2023-08-01T15:14:12;1.83;;;1.00;;
15102;SDS011;7652;53.584;9.998;2023-08-01T15:17:34;2.60;;;1.23;;
15102;SDS011;7652;53.584;9.998;2023-08-01T15:20:55;1.33;;;0.87;;
15102;SDS011;7652;53.584;9.998;2023-08-01T15:24:18;2.97;;;1.00;;
15102;SDS011;7652;53.584;9.998;2023-08-01T15:27:40;1.00;;;0.93;;
15102;SDS011;7652;53.584;9.998;2023-08-01T15:31:02;2.07;;;1.10;;
15102;SDS011;7652;53.584;9.998;2023-08-01T15:34:26;1.50;;;1.00;;
15102;SDS011;7652;53.584;9.998;2023-08-01T15:37:48;1.40;;;1.03;;
15102;SDS011;7652;53.584;9.998;2023-08-01T15:41:10;1.47;;;1.33;;
15102;SDS011;7652;53.584;9.998;2023-08-01T15:44:32;3.47;;;1.13;;
15102;SDS011;7652;53.584;9.998;2023-08-01T15:47:53;2.17;;;1.00;;
15102;SDS011;7652;53.584;9.998;2023-08-01T15:51:15;1.97;;;1.00;;
15102;SDS011;7652;53.584;9.998;2023-08-01T15:54:36;4.40;;;1.40;;
15102;SDS011;7652;53.584;9.998;2023-08-01T15:57:59;1.57;;;0.90;;
15102;SDS011;7652;53.584;9.998;2023-08-01T16:01:21;3.07;;;1.30;;
15102;SDS011;7652;53.584;9.998;2023-08-01T16:04:42;1.23;;;0.67;;
15102;SDS011;7652;53.584;9.998;2023-08-01T16:08:04;1.07;;;0.87;;
15102;SDS011;7652;53.584;9.998;2023-08-01T16:11:26;2.73;;;0.90;;
15102;SDS011;7652;53.584;9.998;2023-08-01T16:14:49;2.07;;;0.80;;
15102;SDS011;7652;53.584;9.998;2023-08-01T16:18:11;1.47;;;0.70;;
15102;SDS011;7652;53.584;9.998;2023-08-01T16:21:32;1.47;;;0.83;;
15102;SDS011;7652;53.584;9.998;2023-08-01T16:24:54;1.23;;;0.90;;
15102;SDS011;7652;53.584;9.998;2023-08-01T16:28:15;1.47;;;1.00;;
15102;SDS011;7652;53.584;9.998;2023-08-01T16:31:38;1.17;;;0.73;;
15102;SDS011;7652;53.584;9.998;2023-08-01T16:35:00;1.80;;;0.97;;
15102;SDS011;7652;53.584;9.998;2023-08-01T16:38:21;2.23;;;1.07;;
15102;SDS011;7652;53.584;9.998;2023-08-01T16:41:43;1.87;;;0.83;;
15102;SDS011;7652;53.584;9.998;2023-08-01T16:45:05;2.37;;;1.00;;
15102;SDS011;7652;53.584;9.998;2023-08-01T16:48:31;2.90;;;1.10;;
15102;SDS011;7652;53.584;9.998;2023-08-01T16:51:53;2.93;;;1.00;;
15102;SDS011;7652;53.584;9.998;2023-08-01T16:55:14;2.10;;;0.90;;
15102;SDS011;7652;53.584;9.998;2023-08-01T16:58:37;2.37;;;1.13;;
15102;SDS011;7652;53.584;9.998;2023-08-01T17:01:58;3.70;;;1.50;;
15102;SDS011;7652;53.584;9.998;2023-08-01T17:05:21;4.10;;;1.23;;
15102;SDS011;7652;53.584;9.998;2023-08-01T17:08:42;3.43;;;1.20;;
15102;SDS011;7652;53.584;9.998;2023-08-01T17:12:05;3.83;;;0.87;;
15102;SDS011;7652;53.584;9.998;2023-08-01T17:15:28;4.27;;;1.00;;
15102;SDS011;7652;53.584;9.998;2023-08-01T17:18:49;1.97;;;1.00;;
15102;SDS011;7652;53.584;9.998;2023-08-01T17:22:12;4.90;;;1.37;;
15102;SDS011;7652;53.584;9.998;2023-08-01T17:25:33;4.17;;;0.90;;
15102;SDS011;7652;53.584;9.998;2023-08-01T17:28:55;2.70;;;1.20;;
15102;SDS011;7652;53.584;9.998;2023-08-01T17:32:17;3.73;;;1.40;;
15102;SDS011;7652;53.584;9.998;2023-08-01T17:35:39;1.97;;;1.00;;
15102;SDS011;7652;53.584;9.998;2023-08-01T17:39:03;2.83;;;1.20;;
15102;SDS011;7652;53.584;9.998;2023-08-01T17:42:25;1.33;;;1.17;;
15102;SDS011;7652;53.584;9.998;2023-08-01T17:45:46;2.90;;;1.20;;
15102;SDS011;7652;53.584;9.998;2023-08-01T17:49:08;3.03;;;0.80;;
15102;SDS011;7652;53.584;9.998;2023-08-01T17:52:29;1.80;;;1.10;;
15102;SDS011;7652;53.584;9.998;2023-08-01T17:55:52;1.50;;;0.77;;
15102;SDS011;7652;53.584;9.998;2023-08-01T17:59:14;1.07;;;0.60;;
15102;SDS011;7652;53.584;9.998;2023-08-01T18:02:35;1.00;;;0.70;;
15102;SDS011;7652;53.584;9.998;2023-08-01T18:06:04;1.10;;;0.73;;
15102;SDS011;7652;53.584;9.998;2023-08-01T18:09:26;1.63;;;0.90;;
15102;SDS011;7652;53.584;9.998;2023-08-01T18:12:49;2.77;;;0.97;;
15102;SDS011;7652;53.584;9.998;2023-08-01T18:16:17;1.90;;;0.83;;
15102;SDS011;7652;53.584;9.998;2023-08-01T18:19:39;1.27;;;0.87;;
15102;SDS011;7652;53.584;9.998;2023-08-01T18:23:01;1.10;;;0.90;;
15102;SDS011;7652;53.584;9.998;2023-08-01T18:26:23;1.33;;;0.90;;
15102;SDS011;7652;53.584;9.998;2023-08-01T18:29:46;2.70;;;1.30;;
15102;SDS011;7652;53.584;9.998;2023-08-01T18:33:07;1.50;;;0.97;;
15102;SDS011;7652;53.584;9.998;2023-08-01T18:36:29;2.53;;;1.00;;
15102;SDS011;7652;53.584;9.998;2023-08-01T18:39:52;4.33;;;1.83;;
15102;SDS011;7652;53.584;9.998;2023-08-01T18:43:14;2.53;;;1.23;;
15102;SDS011;7652;53.584;9.998;2023-08-01T18:46:37;2.20;;;1.03;;
15102;SDS011;7652;53.584;9.998;2023-08-01T18:50:00;4.17;;;1.30;;
15102;SDS011;7652;53.584;9.998;2023-08-01T18:53:22;1.70;;;0.90;;
15102;SDS011;7652;53.584;9.998;2023-08-01T18:56:43;4.33;;;1.77;;
15102;SDS011;7652;53.584;9.998;2023-08-01T19:00:06;3.00;;;1.00;;
15102;SDS011;7652;53.584;9.998;2023-08-01T19:03:29;2.20;;;1.13;;
15102;SDS011;7652;53.584;9.998;2023-08-01T19:06:51;1.20;;;0.97;;
15102;SDS011;7652;53.584;9.998;2023-08-01T19:10:12;2.83;;;1.03;;
15102;SDS011;7652;53.584;9.998;2023-08-01T19:13:35;4.87;;;1.20;;
15102;SDS011;7652;53.584;9.998;2023-08-01T19:16:56;1.00;;;0.90;;
15102;SDS011;7652;53.584;9.998;2023-08-01T19:20:19;3.10;;;0.90;;
15102;SDS011;7652;53.584;9.998;2023-08-01T19:23:41;2.53;;;1.00;;
15102;SDS011;7652;53.584;9.998;2023-08-01T19:27:03;1.50;;;1.00;;
15102;SDS011;7652;53.584;9.998;2023-08-01T19:30:25;2.53;;;1.00;;
15102;SDS011;7652;53.584;9.998;2023-08-01T19:33:49;0.80;;;0.70;;
15102;SDS011;7652;53.584;9.998;2023-08-01T19:37:12;1.10;;;0.80;;
15102;SDS011;7652;53.584;9.998;2023-08-01T19:40:37;1.33;;;0.80;;
15102;SDS011;7652;53.584;9.998;2023-08-01T19:43:59;2.07;;;1.17;;
15102;SDS011;7652;53.584;9.998;2023-08-01T19:47:20;1.77;;;1.10;;
15102;SDS011;7652;53.584;9.998;2023-08-01T19:50:42;3.57;;;0.90;;
15102;SDS011;7652;53.584;9.998;2023-08-01T19:54:05;0.90;;;0.70;;
15102;SDS011;7652;53.584;9.998;2023-08-01T19:57:27;2.27;;;0.90;;
15102;SDS011;7652;53.584;9.998;2023-08-01T20:00:50;1.07;;;0.97;;
15102;SDS011;7652;53.584;9.998;2023-08-01T20:04:11;3.97;;;1.43;;
15102;SDS011;7652;53.584;9.998;2023-08-01T20:07:33;2.07;;;1.07;;
15102;SDS011;7652;53.584;9.998;2023-08-01T20:10:57;1.37;;;0.83;;
15102;SDS011;7652;53.584;9.998;2023-08-01T20:14:19;1.90;;;0.87;;
15102;SDS011;7652;53.584;9.998;2023-08-01T20:17:40;0.77;;;0.73;;
15102;SDS011;7652;53.584;9.998;2023-08-01T20:21:02;1.40;;;0.90;;
15102;SDS011;7652;53.584;9.998;2023-08-01T20:24:24;1.43;;;0.80;;
15102;SDS011;7652;53.584;9.998;2023-08-01T20:27:47;1.23;;;0.87;;
15102;SDS011;7652;53.584;9.998;2023-08-01T20:31:09;1.20;;;0.73;;
15102;SDS011;7652;53.584;9.998;2023-08-01T20:34:31;2.13;;;1.30;;